Trabzon — 9HA2783 — position and weather

sailwx.info

Track history (hours):
 
Tides and Currents Weather Stations Pressure Air Temp Water Temp Dewpoint Dewpoint Depression Visibility Wind Speed Wind Dir Waves Ship Positions

Trabzon

Last reported at 2016-May-21 14:33 UTC. Time now 2016-May-30 08:48 UTC.
Position N 35°59' W 005°31'.
Warning: this ship's position is 8 days out of date.

Length 229 m; draft 9.3 m.

Type: Cargo ship. MMSI: 215679000.

Date/timePositionNaut miles runAvg speedWind from/ knotsBaromVisibWave heightAir tempDewpointWater temp
2016-May-21 14:33N 35°59' W 005°31'9 8.9
2016-May-21 13:33N 36°05' W 005°24'0 0.1
2016-May-21 12:32N 36°05' W 005°24'0 0.1
2016-May-21 11:32N 36°05' W 005°24'0 0.0
2016-May-21 10:32N 36°05' W 005°24'0 0.1
2016-May-21 09:32N 36°05' W 005°24'0 0.1
2016-May-21 08:32N 36°05' W 005°24'0 0.0
2016-May-21 07:32N 36°05' W 005°24'0 0.4
2016-May-21 06:33N 36°05' W 005°25'0 0.2
2016-May-21 05:33N 36°05' W 005°24'4 3.8
2016-May-21 04:30N 36°05' W 005°19'23112.1
2016-May-20 09:30N 36°37' W 000°36'2912.0
2016-May-20 07:06N 36°41' W 000°00'812.1
2016-May-20 06:27N 36°42' E 000°10'2311.9
2016-May-20 04:33N 36°45' E 000°38'1212.0
2016-May-20 03:33N 36°47' E 000°52'1511.5
2016-May-20 02:16N 36°49' E 001°11'9711.1
2016-May-19 17:33N 37°03' E 003°11'28111.6
2016-May-18 17:23N 37°43' E 008°60'1011.6
2016-May-18 16:32N 37°42' E 009°13'1212.2
2016-May-18 15:33N 37°41' E 009°28'1111.4
2016-May-18 14:33N 37°41' E 009°42'1111.3
2016-May-18 13:33N 37°40' E 009°56'1211.8
2016-May-18 12:33N 37°39' E 010°11'1313.3
2016-May-18 11:33N 37°37' E 010°28'1211.6
2016-May-18 10:34N 37°35' E 010°42'1211.5
2016-May-18 09:33N 37°32' E 010°56'4011.8
2016-May-18 06:10N 37°13' E 011°40'812.4
2016-May-18 05:33N 37°09' E 011°48'1212.0
2016-May-18 04:33N 37°02' E 012°01'1211.9
2016-May-18 03:33N 36°56' E 012°13'1212.4
2016-May-18 02:33N 36°49' E 012°26'1212.0
2016-May-18 01:33N 36°45' E 012°40'1211.7
2016-May-18 00:33N 36°43' E 012°55'1211.8
2016-May-17 23:34N 36°40' E 013°09'1211.8
2016-May-17 22:34N 36°37' E 013°23'1211.6
2016-May-17 21:33N 36°35' E 013°37'1211.5
2016-May-17 20:33N 36°33' E 013°51'1111.4
2016-May-17 19:34N 36°30' E 014°05'1211.5
2016-May-17 18:33N 36°27' E 014°19'1111.2
2016-May-17 17:33N 36°26' E 014°33'1111.1
2016-May-17 16:33N 36°27' E 014°47'1111.1
2016-May-17 15:32N 36°28' E 015°00'2510.2
2016-May-17 13:04N 36°41' E 015°27'610.7
2016-May-17 12:33N 36°46' E 015°31'  
Track history (hours):
 
Tides and Currents Weather Stations Pressure Air Temp Water Temp Dewpoint Dewpoint Depression Visibility Wind Speed Wind Dir Waves Ship Positions

Trabzon

Last reported at 2016-May-21 14:33 UTC. Time now 2016-May-30 08:48 UTC.
Position N 35°59' W 005°31'.
Warning: this ship's position is 8 days out of date.

Length 229 m; draft 9.3 m.

Type: Cargo ship. MMSI: 215679000.

Date/timePositionNaut miles runAvg speedWind from/ knotsBaromVisibWave heightAir tempDewpointWater temp
2016-May-21 14:33N 35°59' W 005°31'9 8.9
2016-May-21 13:33N 36°05' W 005°24'0 0.1
2016-May-21 12:32N 36°05' W 005°24'0 0.1
2016-May-21 11:32N 36°05' W 005°24'0 0.0
2016-May-21 10:32N 36°05' W 005°24'0 0.1
2016-May-21 09:32N 36°05' W 005°24'0 0.1
2016-May-21 08:32N 36°05' W 005°24'0 0.0
2016-May-21 07:32N 36°05' W 005°24'0 0.4
2016-May-21 06:33N 36°05' W 005°25'0 0.2
2016-May-21 05:33N 36°05' W 005°24'4 3.8
2016-May-21 04:30N 36°05' W 005°19'23112.1
2016-May-20 09:30N 36°37' W 000°36'2912.0
2016-May-20 07:06N 36°41' W 000°00'812.1
2016-May-20 06:27N 36°42' E 000°10'2311.9
2016-May-20 04:33N 36°45' E 000°38'1212.0
2016-May-20 03:33N 36°47' E 000°52'1511.5
2016-May-20 02:16N 36°49' E 001°11'9711.1
2016-May-19 17:33N 37°03' E 003°11'28111.6
2016-May-18 17:23N 37°43' E 008°60'1011.6
2016-May-18 16:32N 37°42' E 009°13'1212.2
2016-May-18 15:33N 37°41' E 009°28'1111.4
2016-May-18 14:33N 37°41' E 009°42'1111.3
2016-May-18 13:33N 37°40' E 009°56'1211.8
2016-May-18 12:33N 37°39' E 010°11'1313.3
2016-May-18 11:33N 37°37' E 010°28'1211.6
2016-May-18 10:34N 37°35' E 010°42'1211.5
2016-May-18 09:33N 37°32' E 010°56'4011.8
2016-May-18 06:10N 37°13' E 011°40'812.4
2016-May-18 05:33N 37°09' E 011°48'1212.0
2016-May-18 04:33N 37°02' E 012°01'1211.9
2016-May-18 03:33N 36°56' E 012°13'1212.4
2016-May-18 02:33N 36°49' E 012°26'1212.0
2016-May-18 01:33N 36°45' E 012°40'1211.7
2016-May-18 00:33N 36°43' E 012°55'1211.8
2016-May-17 23:34N 36°40' E 013°09'1211.8
2016-May-17 22:34N 36°37' E 013°23'1211.6
2016-May-17 21:33N 36°35' E 013°37'1211.5
2016-May-17 20:33N 36°33' E 013°51'1111.4
2016-May-17 19:34N 36°30' E 014°05'1211.5
2016-May-17 18:33N 36°27' E 014°19'1111.2
2016-May-17 17:33N 36°26' E 014°33'1111.1
2016-May-17 16:33N 36°27' E 014°47'1111.1
2016-May-17 15:32N 36°28' E 015°00'2510.2
2016-May-17 13:04N 36°41' E 015°27'610.7
2016-May-17 12:33N 36°46' E 015°31'  

Dump ship's entire track history